Latest Weather Observations for Dwellingup

IDW60801

Issued at 8:03 am WST Monday 2 February 2015 (issued every 30 minutes, with the page automatically refreshed every 10 minutes)

About weather observations | Map of weather stations | Latest weather observations for WA | Other Formats
Station Details ID: 009538 Name: DWELLINGUP Lat: -32.71 Lon: 116.06 Height: 267.0 m
Data from the previous 72 hours. | See also: Recent months at Dwellingup
Date/Time
WST
Temp
°C
App
Temp
°C
Dew
Point
Rel
Hum
%
Delta-T
°C
Wind Press
QNH
hPa
Press
MSL
hPa
Rain
since 9 am
mm
Dir
 
Spd
km/h
Gust
km/h
Spd
kts
Gust
kts
02/08:00am 24.2 21.7 12.2 47 6.9 ENE 17 28 9 15 1016.8 1015.6 0.0
02/07:30am 22.3 19.6 11.7 51 6.0 ESE 17 24 9 13 1016.5 1015.3 0.0
02/07:00am 20.6 17.8 11.5 56 5.1 ESE 17 30 9 16 1016.0 1014.8 0.0
02/06:30am 19.7 17.0 11.7 60 4.5 ESE 17 26 9 14 1015.4 1014.3 0.0
02/06:00am 19.6 17.1 12.4 63 4.1 ESE 17 26 9 14 1014.8 1013.7 0.0
02/05:30am 19.9 17.3 13.1 65 3.9 ESE 19 28 10 15 1014.5 1013.4 0.0
02/05:00am 20.1 18.0 13.6 66 3.8 E 17 28 9 15 1014.3 1013.2 0.0
02/04:30am 20.5 18.5 13.9 66 3.9 E 17 28 9 15 1014.3 1013.2 0.0
02/04:00am 20.7 18.3 13.9 65 4.0 ESE 19 30 10 16 1013.8 1012.6 0.0
02/03:30am 20.6 18.0 13.8 65 4.0 ESE 20 30 11 16 1013.9 1012.8 0.0
02/03:00am 20.3 17.9 13.7 66 3.8 ESE 19 30 10 16 1013.5 1012.3 0.0
02/02:30am 20.8 19.5 13.7 64 4.1 E 13 24 7 13 1013.6 1012.4 0.0
02/02:00am 21.6 20.3 13.8 61 4.6 ENE 13 20 7 11 1014.0 1012.9 0.0
02/01:30am 22.0 19.0 13.6 59 4.9 NNE 22 37 12 20 1015.2 1014.1 0.0
02/01:00am 22.5 20.1 13.8 58 5.1 NNE 19 28 10 15 1016.3 1015.1 0.0
02/12:30am 22.2 20.8 14.6 62 4.5 NE 15 26 8 14 1016.8 1015.6 0.0
02/12:00am 21.7 20.2 15.3 67 3.8 NNE 17 26 9 14 1017.1 1015.9 0.0
 
Date/Time
WST
Temp
°C
App
Temp
°C
Dew
Point
Rel
Hum
%
Delta-T
°C
Wind Press
QNH
hPa
Press
MSL
hPa
Rain
since 9 am
mm
Dir
 
Spd
km/h
Gust
km/h
Spd
kts
Gust
kts
01/11:30pm 21.7 20.7 15.5 68 3.7 NNE 15 22 8 12 1017.3 1016.2 0.0
01/11:00pm 21.9 21.2 15.5 67 3.9 N 13 20 7 11 1017.2 1016.1 0.0
01/10:30pm 22.2 20.5 14.8 63 4.4 NNW 17 35 9 19 1016.6 1015.4 0.0
01/10:00pm 23.5 20.3 14.2 56 5.5 NNW 24 37 13 20 1016.2 1015.0 0.0
01/09:30pm 23.9 20.8 10.2 42 7.6 NE 17 28 9 15 1015.8 1014.6 0.0
01/09:00pm 23.7 20.5 10.0 42 7.6 E 17 28 9 15 1014.3 1013.2 0.0
01/08:30pm 24.5 21.2 9.6 39 8.2 ESE 17 24 9 13 1014.1 1013.0 0.0
01/08:00pm 25.5 21.6 9.3 36 9.0 ESE 20 30 11 16 1013.4 1012.2 0.0
01/07:30pm 26.3 22.3 9.2 34 9.5 ESE 20 32 11 17 1013.1 1011.9 0.0
01/07:00pm 27.1 23.4 9.5 33 9.8 ESE 19 33 10 18 1013.1 1011.9 0.0
01/06:30pm 28.6 24.3 9.3 30 10.8 ESE 22 37 12 20 1012.8 1011.6 0.0
01/06:00pm 29.6 25.8 9.2 28 11.5 ESE 19 39 10 21 1012.8 1011.6 0.0
01/05:30pm 30.3 26.0 9.2 27 11.9 E 22 35 12 19 1012.7 1011.5 0.0
01/05:00pm 30.9 27.1 9.2 26 12.3 E 19 32 10 17 1013.0 1011.8 0.0
01/04:30pm 31.0 26.9 8.7 25 12.5 E 20 37 11 20 1013.2 1012.0 0.0
01/04:00pm 31.6 27.8 9.2 25 12.7 ESE 19 35 10 19 1013.4 1012.2 0.0
01/03:30pm 31.3 27.4 9.5 26 12.4 ESE 20 33 11 18 1013.8 1012.6 0.0
01/03:00pm 29.9 26.2 9.4 28 11.6 E 19 33 10 18 1014.2 1013.1 0.0
01/02:30pm 29.9 26.0 9.4 28 11.6 E 20 37 11 20 1014.6 1013.5 0.0
01/02:00pm 27.8 23.8 9.1 31 10.4 E 20 41 11 22 1014.7 1013.6 0.0
01/01:30pm 27.5 24.1 10.7 35 9.6 ESE 19 28 10 15 1015.1 1014.0 0.0
01/01:00pm 25.7 22.9 11.5 41 8.2 E 17 30 9 16 1015.7 1014.5 0.0
01/12:30pm 24.9 22.0 11.1 42 7.8 E 17 28 9 15 1015.9 1014.7 0.0
01/12:00pm 23.8 20.7 11.5 46 7.0 ESE 19 30 10 16 1016.1 1014.9 0.0
01/11:30am 22.6 19.1 11.0 48 6.5 ESE 20 33 11 18 1016.4 1015.2 0.0
01/11:00am 22.1 18.1 10.6 48 6.4 ESE 22 37 12 20 1016.7 1015.5 0.0
01/10:30am 22.2 19.4 11.3 50 6.1 ESE 17 30 9 16 1016.7 1015.5 0.0
01/10:00am 20.6 17.0 10.4 52 5.6 E 20 33 11 18 1016.9 1015.7 0.0
01/09:30am 20.0 16.1 10.7 55 5.1 ESE 22 37 12 20 1016.7 1015.5 0.0
01/09:00am 19.7 15.4 10.9 57 4.8 ESE 24 37 13 20 1016.6 1015.4 0.0
01/08:49am 19.7 14.6 10.7 56 4.9 ESE 28 46 15 25 1016.6 1015.4 0.0
01/08:30am 19.3 15.0 10.8 58 4.7 ESE 24 33 13 18 1016.7 1015.5 0.0
01/08:00am 19.0 14.8 11.1 60 4.4 ESE 24 41 13 22 1016.6 1015.4 0.0
01/07:30am 18.5 14.2 10.8 61 4.2 ESE 24 39 13 21 1016.6 1015.4 0.0
01/07:00am 17.9 13.7 11.0 64 3.8 ESE 24 41 13 22 1016.4 1015.2 0.0
01/06:30am 17.8 13.2 10.9 64 3.8 ESE 26 39 14 21 1016.1 1014.9 0.0
01/06:00am 17.6 13.0 10.9 65 3.7 ESE 26 46 14 25 1015.9 1014.7 0.0
01/05:30am 17.4 12.0 10.8 65 3.6 ESE 30 48 16 26 1015.9 1014.7 0.0
01/05:01am 17.3 12.2 10.7 65 3.6 ESE 28 46 15 25 1015.7 1014.5 0.0
01/05:00am 17.4 12.7 10.8 65 3.6 ESE 26 46 14 25 1015.7 1014.5 0.0
01/04:30am 17.3 12.6 10.7 65 3.6 ESE 26 37 14 20 1015.7 1014.5 0.0
01/04:02am 17.1 12.0 10.7 66 3.5 ESE 28 48 15 26 1015.4 1014.3 0.0
01/04:00am 17.1 12.4 10.7 66 3.5 ESE 26 41 14 22 1015.5 1014.4 0.0
01/03:49am 17.0 11.5 10.6 66 3.5 ESE 30 48 16 26 1015.8 1014.6 0.0
01/03:30am 17.1 12.4 10.7 66 3.5 ESE 26 50 14 27 1015.9 1014.7 0.0
01/03:25am 17.1 12.0 10.7 66 3.5 ESE 28 50 15 27 1015.9 1014.7 0.0
01/03:00am 17.3 12.6 10.7 65 3.6 ESE 26 46 14 25 1015.3 1014.2 0.0
01/02:38am 17.6 12.5 10.5 63 3.8 ESE 28 54 15 29 1015.1 1014.0 0.0
01/02:30am 17.6 13.2 10.5 63 3.8 ESE 24 46 13 25 1015.0 1013.9 0.0
01/02:08am 18.0 12.8 10.4 61 4.1 ESE 28 48 15 26 1015.0 1013.9 0.0
01/02:00am 18.1 13.3 10.2 60 4.3 ESE 26 44 14 24 1014.9 1013.8 0.0
01/01:48am 18.3 13.1 10.4 60 4.3 ESE 28 48 15 26 1014.8 1013.7 0.0
01/01:30am 18.8 14.0 10.4 58 4.6 ESE 26 44 14 24 1014.8 1013.7 0.0
01/01:09am 19.2 13.9 9.9 55 5.0 ESE 28 48 15 26 1015.0 1013.9 0.0
01/01:00am 19.5 15.4 10.0 54 5.1 ESE 22 43 12 23 1015.0 1013.9 0.0
01/12:51am 19.7 14.4 9.9 53 5.3 SE 28 48 15 26 1015.0 1013.9 0.0
01/12:30am 20.1 15.4 9.1 49 5.9 SE 24 41 13 22 1015.1 1014.0 0.0
01/12:00am 21.0 15.7 8.6 45 6.6 ESE 26 43 14 23 1015.1 1014.0 0.0
 
Date/Time
WST
Temp
°C
App
Temp
°C
Dew
Point
Rel
Hum
%
Delta-T
°C
Wind Press
QNH
hPa
Press
MSL
hPa
Rain
since 9 am
mm
Dir
 
Spd
km/h
Gust
km/h
Spd
kts
Gust
kts
31/11:30pm 21.8 17.2 8.3 42 7.2 ESE 22 41 12 22 1015.4 1014.3 0.0
31/11:08pm 22.4 16.6 7.8 39 7.7 ESE 28 46 15 25 1015.5 1014.4 0.0
31/11:00pm 22.5 17.5 7.9 39 7.7 ESE 24 43 13 23 1015.9 1014.7 0.0
31/10:30pm 23.0 17.8 7.1 36 8.3 ESE 24 48 13 26 1015.7 1014.5 0.0
31/10:00pm 23.4 18.0 6.2 33 8.9 ESE 24 44 13 24 1015.5 1014.4 0.0
31/09:30pm 24.1 17.8 5.9 31 9.4 ESE 28 50 15 27 1015.5 1014.4 0.0
31/09:00pm 24.6 18.5 6.4 31 9.5 ESE 28 46 15 25 1015.8 1014.6 0.0
31/08:48pm 24.8 18.7 6.5 31 9.6 ESE 28 52 15 28 1015.9 1014.7 0.0
31/08:30pm 25.0 19.8 7.2 32 9.5 ESE 24 39 13 21 1015.7 1014.5 0.0
31/08:00pm 25.4 18.6 7.1 31 9.7 ESE 32 52 17 28 1015.4 1014.3 0.0
31/07:39pm 26.0 20.1 7.6 31 9.9 ESE 28 52 15 28 1015.0 1013.9 0.0
31/07:30pm 26.4 21.6 7.4 30 10.2 ESE 22 41 12 22 1014.9 1013.8 0.0
31/07:00pm 26.8 22.5 7.8 30 10.3 ESE 20 37 11 20 1014.8 1013.7 0.0
31/06:30pm 27.4 22.7 7.8 29 10.7 E 22 39 12 21 1014.7 1013.6 0.0
31/06:00pm 27.8 23.2 8.1 29 10.8 ESE 22 41 12 22 1014.6 1013.5 0.0
31/05:30pm 28.0 23.3 7.8 28 11.0 ESE 22 37 12 20 1014.5 1013.4 0.0
31/05:00pm 28.4 23.7 7.6 27 11.3 ESE 22 37 12 20 1014.4 1013.3 0.0
31/04:34pm 29.2 23.5 8.3 27 11.6 ESE 28 46 15 25 1014.5 1013.4 0.0
31/04:30pm 29.4 24.2 9.0 28 11.4 ESE 26 44 14 24 1014.4 1013.3 0.0
31/04:00pm 28.9 24.6 8.0 27 11.5 ESE 20 41 11 22 1014.5 1013.4 0.0
31/03:30pm 29.2 24.1 7.7 26 11.8 ESE 24 46 13 25 1014.7 1013.6 0.0
31/03:08pm 29.4 23.5 7.3 25 12.1 E 28 52 15 28 1014.8 1013.7 0.0
31/03:00pm 29.7 25.3 7.6 25 12.1 ESE 20 35 11 19 1014.9 1013.8 0.0
31/02:30pm 29.4 24.0 7.9 26 11.8 E 26 50 14 27 1014.9 1013.8 0.0
31/02:03pm 30.8 25.2 7.3 23 12.9 E 26 48 14 26 1014.9 1013.8 0.0
31/02:00pm 30.2 24.9 6.8 23 12.7 ESE 24 41 13 22 1015.0 1013.9 0.0
31/01:30pm 29.3 24.1 7.2 25 12.0 ESE 24 41 13 22 1015.0 1013.9 0.0
31/01:00pm 29.6 23.9 6.9 24 12.3 E 26 46 14 25 1015.4 1014.3 0.0
31/12:34pm 28.9 23.0 7.5 26 11.7 E 28 46 15 25 1015.7 1014.5 0.0
31/12:30pm 28.3 22.8 7.5 27 11.3 E 26 46 14 25 1015.8 1014.6 0.0
31/12:19pm 28.5 22.6 7.7 27 11.4 ESE 28 52 15 28 1015.7 1014.5 0.0
31/12:00pm 28.1 22.8 8.4 29 10.9 E 26 43 14 23 1016.0 1014.8 0.0
31/11:33am 27.8 22.2 8.6 30 10.6 ESE 28 48 15 26 1016.2 1015.0 0.0
31/11:30am 27.7 22.8 8.6 30 10.6 ESE 24 46 13 25 1016.3 1015.1 0.0
31/11:00am 25.8 20.9 8.3 33 9.5 E 24 43 13 23 1016.4 1015.2 0.0
31/10:44am 25.6 20.0 8.6 34 9.3 ESE 28 48 15 26 1016.6 1015.4 0.0
31/10:30am 25.0 20.2 8.9 36 8.8 E 24 43 13 23 1016.5 1015.3 0.0
31/10:07am 24.1 18.6 9.3 39 8.1 ESE 28 46 15 25 1016.6 1015.4 0.0
31/10:00am 24.0 19.0 9.6 40 7.9 ESE 26 50 14 27 1016.5 1015.3 0.0
31/09:30am 22.7 16.6 9.8 44 7.1 ESE 32 50 17 27 1016.8 1015.7 0.0
31/09:08am 22.1 16.9 10.3 47 6.5 E 28 50 15 27 1016.7 1015.6 0.0
31/09:00am 21.9 17.9 10.4 48 6.4 ESE 22 41 12 22 1016.7 1015.6 0.0
31/08:30am 20.4 15.3 10.5 53 5.4 ESE 28 48 15 26 1017.0 1015.9 0.0
31/08:18am 20.2 15.2 10.9 55 5.1 ESE 28 52 15 28 1016.8 1015.7 0.0
31/08:00am 19.5 14.5 10.8 57 4.8 ESE 28 44 15 24 1016.8 1015.7 0.0
31/07:38am 18.5 13.5 11.1 62 4.1 ESE 28 46 15 25 1016.9 1015.8 0.0
31/07:30am 18.2 12.8 11.0 63 3.9 ESE 30 44 16 24 1017.0 1015.9 0.0
31/07:00am 17.1 12.9 11.2 68 3.2 ESE 24 46 13 25 1017.0 1015.9 0.0
31/06:30am 16.5 12.3 11.0 70 3.0 ESE 24 50 13 27 1016.9 1015.8 0.0
31/06:00am 16.3 12.1 11.0 71 2.9 ESE 24 48 13 26 1016.5 1015.3 0.0
31/05:30am 16.2 11.9 10.9 71 2.9 ESE 24 39 13 21 1016.4 1015.2 0.0
31/05:00am 16.4 12.1 10.9 70 3.0 ESE 24 41 13 22 1016.2 1015.0 0.0
31/04:31am 16.5 11.5 10.8 69 3.1 ESE 28 46 15 25 1016.1 1014.9 0.0
31/04:30am 16.5 11.8 10.8 69 3.1 ESE 26 46 14 25 1016.1 1014.9 0.0
31/04:13am 16.6 11.6 10.9 69 3.1 ESE 28 52 15 28 1016.3 1015.1 0.0
31/04:00am 16.6 12.0 10.9 69 3.1 ESE 26 44 14 24 1016.3 1015.1 0.0
31/03:30am 16.9 11.9 11.0 68 3.2 ESE 28 50 15 27 1016.3 1015.1 0.0
31/03:00am 17.1 12.1 10.9 67 3.4 ESE 28 48 15 26 1016.3 1015.1 0.0
31/02:30am 17.4 12.4 10.8 65 3.6 ESE 28 48 15 26 1016.1 1014.9 0.0
31/02:27am 17.3 12.2 10.7 65 3.6 ESE 28 48 15 26 1016.1 1014.9 0.0
31/02:00am 17.8 13.4 10.4 62 4.0 ESE 24 43 13 23 1015.8 1014.6 0.0
31/01:41am 18.1 13.0 10.5 61 4.1 ESE 28 50 15 27 1015.8 1014.6 0.0
31/01:30am 18.3 13.9 10.4 60 4.3 ESE 24 44 13 24 1016.0 1014.8 0.0
31/01:04am 18.8 13.6 10.1 57 4.7 ESE 28 48 15 26 1016.1 1014.9 0.0
31/01:00am 19.0 14.5 10.0 56 4.9 ESE 24 43 13 23 1016.1 1014.9 0.0
31/12:30am 19.8 14.5 10.0 53 5.3 ESE 28 48 15 26 1016.1 1014.9 0.0
31/12:00am 20.9 15.6 9.8 49 6.0 ESE 28 52 15 28 1016.0 1014.8 0.0
 
Date/Time
WST
Temp
°C
App
Temp
°C
Dew
Point
Rel
Hum
%
Delta-T
°C
Wind Press
QNH
hPa
Press
MSL
hPa
Rain
since 9 am
mm
Dir
 
Spd
km/h
Gust
km/h
Spd
kts
Gust
kts
30/11:37pm 22.0 16.4 8.9 43 7.1 ESE 28 46 15 25 1015.9 1014.7 0.0
30/11:30pm 22.2 17.4 8.7 42 7.3 ESE 24 46 13 25 1015.9 1014.7 0.0
30/11:00pm 23.4 17.4 7.1 35 8.6 ESE 28 48 15 26 1015.8 1014.6 0.0
30/10:59pm 23.4 17.3 6.7 34 8.7 ESE 28 48 15 26 1015.8 1014.6 0.0
30/10:30pm 24.4 19.3 6.2 31 9.5 ESE 22 41 12 22 1015.7 1014.5 0.0
30/10:20pm 24.9 18.7 6.1 30 9.8 ESE 28 52 15 28 1015.4 1014.3 0.0
30/10:00pm 25.6 20.1 5.8 28 10.3 ESE 24 44 13 24 1015.2 1014.1 0.0
30/09:30pm 26.6 20.4 6.1 27 10.8 ESE 28 46 15 25 1015.2 1014.1 0.0
30/09:28pm 26.7 20.5 6.2 27 10.8 ESE 28 46 15 25 1015.2 1014.1 0.0
30/09:00pm 27.5 21.6 3.9 22 12.0 SE 24 41 13 22 1014.8 1013.7 0.0
30/08:30pm 28.4 22.6 4.6 22 12.3 SE 24 43 13 23 1014.3 1013.2 0.0
30/08:00pm 29.6 24.8 5.6 22 12.7 SE 20 37 11 20 1013.7 1012.6 0.0
30/07:30pm 30.2 25.5 6.1 22 12.9 SE 20 39 11 21 1013.2 1012.0 0.0
30/07:00pm 31.3 26.5 5.7 20 13.7 SE 20 33 11 18 1012.8 1011.6 0.0
30/06:30pm 31.9 28.0 5.4 19 14.2 ESE 15 26 8 14 1012.3 1011.1 0.0
30/06:00pm 33.1 30.1 7.9 21 14.1 ESE 13 26 7 14 1012.1 1010.9 0.0
30/05:30pm 33.3 30.8 6.6 19 14.7 E 9 15 5 8 1012.0 1010.8 0.0
30/05:00pm 34.1 31.0 5.6 17 15.5 SE 11 24 6 13 1012.1 1010.9 0.0
30/04:30pm 34.2 31.3 4.8 16 15.8 E 9 17 5 9 1011.9 1010.7 0.0
30/04:00pm 35.3 30.7 3.8 14 16.8 ENE 17 28 9 15 1012.1 1010.9 0.0
30/03:30pm 35.1 30.3 2.6 13 16.9 ENE 17 33 9 18 1012.1 1010.9 0.0
30/03:00pm 35.3 30.3 3.8 14 16.8 E 19 37 10 20 1012.5 1011.3 0.0
30/02:30pm 34.8 30.3 4.4 15 16.3 ENE 17 35 9 19 1012.7 1011.5 0.0
30/02:00pm 35.2 29.8 4.7 15 16.5 E 22 39 12 21 1012.8 1011.6 0.0
30/01:30pm 35.9 30.8 4.2 14 17.0 E 20 37 11 20 1012.8 1011.6 0.0
30/01:00pm 34.9 29.9 4.4 15 16.3 ENE 20 46 11 25 1013.0 1011.8 0.0
30/12:30pm 33.7 29.0 6.1 18 15.1 E 20 41 11 22 1013.1 1011.9 0.0
30/12:00pm 33.5 28.0 7.5 20 14.5 ESE 26 44 14 24 1013.5 1012.4 0.0
30/11:30am 31.9 28.2 10.0 26 12.6 ESE 20 39 11 21 1013.6 1012.5 0.0
30/11:00am 30.6 26.7 12.0 32 11.0 ESE 24 35 13 19 1013.9 1012.8 0.0
30/10:30am 28.9 25.8 12.3 36 9.8 ESE 20 37 11 20 1014.2 1013.1 0.0
30/10:00am 27.6 24.7 12.8 40 8.8 ESE 20 33 11 18 1014.1 1013.0 0.0
30/09:30am 26.0 21.6 12.8 44 7.8 ESE 28 39 15 21 1014.3 1013.2 0.0
30/09:00am 25.5 22.5 12.7 45 7.5 ESE 20 35 11 19 1014.3 1013.2 0.0
30/08:30am 23.4 20.0 12.4 50 6.3 ESE 22 35 12 19 1014.3 1013.2 0.0

Other Formats:

Comma delimited format used in spreadsheet applications
http://www.bom.gov.au/fwo/IDW60801/IDW60801.94620.axf

JavaScript Object Notation format (JSON) in row-major order
http://www.bom.gov.au/fwo/IDW60801/IDW60801.94620.json